sensor_id;sensor_type;location;lat;lon;timestamp;P1;durP1;ratioP1;P2;durP2;ratioP2
819;SDS011;392;48.838;2.322;2023-07-22T00:01:42;6.20;;;4.10;;
819;SDS011;392;48.838;2.322;2023-07-22T00:04:10;6.13;;;4.47;;
819;SDS011;392;48.838;2.322;2023-07-22T00:06:37;4.63;;;4.23;;
819;SDS011;392;48.838;2.322;2023-07-22T00:09:04;6.23;;;5.10;;
819;SDS011;392;48.838;2.322;2023-07-22T00:11:31;4.40;;;4.03;;
819;SDS011;392;48.838;2.322;2023-07-22T00:13:59;5.30;;;4.70;;
819;SDS011;392;48.838;2.322;2023-07-22T00:16:26;4.57;;;4.17;;
819;SDS011;392;48.838;2.322;2023-07-22T00:18:56;5.10;;;4.60;;
819;SDS011;392;48.838;2.322;2023-07-22T00:21:23;6.10;;;4.67;;
819;SDS011;392;48.838;2.322;2023-07-22T00:23:50;4.60;;;4.20;;
819;SDS011;392;48.838;2.322;2023-07-22T00:26:17;4.87;;;4.37;;
819;SDS011;392;48.838;2.322;2023-07-22T00:28:45;6.23;;;4.93;;
819;SDS011;392;48.838;2.322;2023-07-22T00:31:12;5.63;;;4.83;;
819;SDS011;392;48.838;2.322;2023-07-22T00:33:40;5.57;;;4.40;;
819;SDS011;392;48.838;2.322;2023-07-22T00:36:08;8.53;;;4.90;;
819;SDS011;392;48.838;2.322;2023-07-22T00:38:35;5.30;;;4.80;;
819;SDS011;392;48.838;2.322;2023-07-22T00:41:03;4.70;;;4.30;;
819;SDS011;392;48.838;2.322;2023-07-22T00:43:31;5.13;;;4.70;;
819;SDS011;392;48.838;2.322;2023-07-22T00:45:58;5.07;;;4.67;;
819;SDS011;392;48.838;2.322;2023-07-22T00:48:26;5.50;;;5.00;;
819;SDS011;392;48.838;2.322;2023-07-22T00:50:54;4.83;;;4.40;;
819;SDS011;392;48.838;2.322;2023-07-22T00:53:23;5.17;;;4.67;;
819;SDS011;392;48.838;2.322;2023-07-22T00:55:51;5.90;;;5.00;;
819;SDS011;392;48.838;2.322;2023-07-22T00:58:18;5.57;;;4.97;;
819;SDS011;392;48.838;2.322;2023-07-22T01:00:47;7.13;;;4.80;;
819;SDS011;392;48.838;2.322;2023-07-22T01:03:15;5.17;;;4.57;;
819;SDS011;392;48.838;2.322;2023-07-22T01:05:44;6.10;;;5.30;;
819;SDS011;392;48.838;2.322;2023-07-22T01:08:13;5.53;;;5.03;;
819;SDS011;392;48.838;2.322;2023-07-22T01:10:42;5.23;;;4.73;;
819;SDS011;392;48.838;2.322;2023-07-22T01:13:09;6.20;;;5.00;;
819;SDS011;392;48.838;2.322;2023-07-22T01:15:36;8.17;;;4.57;;
819;SDS011;392;48.838;2.322;2023-07-22T01:18:04;6.23;;;5.60;;
819;SDS011;392;48.838;2.322;2023-07-22T01:20:32;5.23;;;4.73;;
819;SDS011;392;48.838;2.322;2023-07-22T01:23:01;5.73;;;5.03;;
819;SDS011;392;48.838;2.322;2023-07-22T01:25:29;5.60;;;5.10;;
819;SDS011;392;48.838;2.322;2023-07-22T01:27:56;6.47;;;4.80;;
819;SDS011;392;48.838;2.322;2023-07-22T01:30:23;6.03;;;4.53;;
819;SDS011;392;48.838;2.322;2023-07-22T01:32:52;6.17;;;5.57;;
819;SDS011;392;48.838;2.322;2023-07-22T01:35:20;5.17;;;4.67;;
819;SDS011;392;48.838;2.322;2023-07-22T01:37:47;5.47;;;4.73;;
819;SDS011;392;48.838;2.322;2023-07-22T01:40:16;5.30;;;4.80;;
819;SDS011;392;48.838;2.322;2023-07-22T01:42:44;5.03;;;4.63;;
819;SDS011;392;48.838;2.322;2023-07-22T01:45:11;5.50;;;5.00;;
819;SDS011;392;48.838;2.322;2023-07-22T01:47:38;5.57;;;5.07;;
819;SDS011;392;48.838;2.322;2023-07-22T01:50:06;5.73;;;5.10;;
819;SDS011;392;48.838;2.322;2023-07-22T01:52:35;6.27;;;4.87;;
819;SDS011;392;48.838;2.322;2023-07-22T01:55:03;5.23;;;4.73;;
819;SDS011;392;48.838;2.322;2023-07-22T01:57:35;7.33;;;4.93;;
819;SDS011;392;48.838;2.322;2023-07-22T02:00:03;4.73;;;4.27;;
819;SDS011;392;48.838;2.322;2023-07-22T02:02:38;6.63;;;5.27;;
819;SDS011;392;48.838;2.322;2023-07-22T02:05:06;4.67;;;4.10;;
819;SDS011;392;48.838;2.322;2023-07-22T02:07:34;6.53;;;5.37;;
819;SDS011;392;48.838;2.322;2023-07-22T02:10:01;5.00;;;4.60;;
819;SDS011;392;48.838;2.322;2023-07-22T02:12:29;5.93;;;5.10;;
819;SDS011;392;48.838;2.322;2023-07-22T02:14:57;5.20;;;4.70;;
819;SDS011;392;48.838;2.322;2023-07-22T02:17:24;5.33;;;4.83;;
819;SDS011;392;48.838;2.322;2023-07-22T02:19:52;5.53;;;4.80;;
819;SDS011;392;48.838;2.322;2023-07-22T02:22:20;5.87;;;4.97;;
819;SDS011;392;48.838;2.322;2023-07-22T02:24:47;5.40;;;4.90;;
819;SDS011;392;48.838;2.322;2023-07-22T02:27:14;6.50;;;5.47;;
819;SDS011;392;48.838;2.322;2023-07-22T02:29:42;5.10;;;4.60;;
819;SDS011;392;48.838;2.322;2023-07-22T02:32:10;4.53;;;4.10;;
819;SDS011;392;48.838;2.322;2023-07-22T02:34:37;4.73;;;4.27;;
819;SDS011;392;48.838;2.322;2023-07-22T02:37:05;5.20;;;4.70;;
819;SDS011;392;48.838;2.322;2023-07-22T02:39:32;5.20;;;4.70;;
819;SDS011;392;48.838;2.322;2023-07-22T02:42:00;4.80;;;4.40;;
819;SDS011;392;48.838;2.322;2023-07-22T02:44:27;5.87;;;4.60;;
819;SDS011;392;48.838;2.322;2023-07-22T02:46:54;5.37;;;4.87;;
819;SDS011;392;48.838;2.322;2023-07-22T02:49:23;4.40;;;4.00;;
819;SDS011;392;48.838;2.322;2023-07-22T02:51:51;5.50;;;4.30;;
819;SDS011;392;48.838;2.322;2023-07-22T02:54:18;5.20;;;4.70;;
819;SDS011;392;48.838;2.322;2023-07-22T02:56:45;4.60;;;4.20;;
819;SDS011;392;48.838;2.322;2023-07-22T02:59:12;5.17;;;4.67;;
819;SDS011;392;48.838;2.322;2023-07-22T03:01:39;5.30;;;4.67;;
819;SDS011;392;48.838;2.322;2023-07-22T03:04:07;5.73;;;5.10;;
819;SDS011;392;48.838;2.322;2023-07-22T03:06:36;5.07;;;4.57;;
819;SDS011;392;48.838;2.322;2023-07-22T03:09:03;5.80;;;4.80;;
819;SDS011;392;48.838;2.322;2023-07-22T03:11:32;4.63;;;4.23;;
819;SDS011;392;48.838;2.322;2023-07-22T03:13:59;4.80;;;4.27;;
819;SDS011;392;48.838;2.322;2023-07-22T03:16:27;5.77;;;4.63;;
819;SDS011;392;48.838;2.322;2023-07-22T03:18:54;5.67;;;4.57;;
819;SDS011;392;48.838;2.322;2023-07-22T03:21:22;4.87;;;4.40;;
819;SDS011;392;48.838;2.322;2023-07-22T03:23:51;4.90;;;4.40;;
819;SDS011;392;48.838;2.322;2023-07-22T03:26:18;5.30;;;4.87;;
819;SDS011;392;48.838;2.322;2023-07-22T03:28:45;5.23;;;4.77;;
819;SDS011;392;48.838;2.322;2023-07-22T03:31:13;4.50;;;4.10;;
819;SDS011;392;48.838;2.322;2023-07-22T03:33:40;5.97;;;5.43;;
819;SDS011;392;48.838;2.322;2023-07-22T03:36:11;4.97;;;4.27;;
819;SDS011;392;48.838;2.322;2023-07-22T03:38:39;5.83;;;4.70;;
819;SDS011;392;48.838;2.322;2023-07-22T03:41:08;6.17;;;5.30;;
819;SDS011;392;48.838;2.322;2023-07-22T03:43:35;14.50;;;4.90;;
819;SDS011;392;48.838;2.322;2023-07-22T03:46:02;5.00;;;4.50;;
819;SDS011;392;48.838;2.322;2023-07-22T03:48:30;5.53;;;5.03;;
819;SDS011;392;48.838;2.322;2023-07-22T03:50:57;4.80;;;4.40;;
819;SDS011;392;48.838;2.322;2023-07-22T03:53:24;5.63;;;4.80;;
819;SDS011;392;48.838;2.322;2023-07-22T03:55:52;5.23;;;4.73;;
819;SDS011;392;48.838;2.322;2023-07-22T03:58:21;6.03;;;5.40;;
819;SDS011;392;48.838;2.322;2023-07-22T04:00:48;6.73;;;5.10;;
819;SDS011;392;48.838;2.322;2023-07-22T04:03:16;7.03;;;4.70;;
819;SDS011;392;48.838;2.322;2023-07-22T04:05:43;6.30;;;5.23;;
819;SDS011;392;48.838;2.322;2023-07-22T04:08:11;5.40;;;4.90;;
819;SDS011;392;48.838;2.322;2023-07-22T04:10:38;6.70;;;5.17;;
819;SDS011;392;48.838;2.322;2023-07-22T04:13:05;8.53;;;5.53;;
819;SDS011;392;48.838;2.322;2023-07-22T04:15:34;6.30;;;5.70;;
819;SDS011;392;48.838;2.322;2023-07-22T04:18:01;6.17;;;5.57;;
819;SDS011;392;48.838;2.322;2023-07-22T04:20:28;6.33;;;4.90;;
819;SDS011;392;48.838;2.322;2023-07-22T04:22:55;7.77;;;5.03;;
819;SDS011;392;48.838;2.322;2023-07-22T04:25:23;6.10;;;5.30;;
819;SDS011;392;48.838;2.322;2023-07-22T04:27:51;7.43;;;5.70;;
819;SDS011;392;48.838;2.322;2023-07-22T04:30:20;7.63;;;6.50;;
819;SDS011;392;48.838;2.322;2023-07-22T04:32:49;8.67;;;5.60;;
819;SDS011;392;48.838;2.322;2023-07-22T04:35:16;6.30;;;5.20;;
819;SDS011;392;48.838;2.322;2023-07-22T04:37:44;6.70;;;5.50;;
819;SDS011;392;48.838;2.322;2023-07-22T04:40:11;7.23;;;6.50;;
819;SDS011;392;48.838;2.322;2023-07-22T04:42:41;6.40;;;5.23;;
819;SDS011;392;48.838;2.322;2023-07-22T04:45:10;6.40;;;5.57;;
819;SDS011;392;48.838;2.322;2023-07-22T04:47:37;5.70;;;5.03;;
819;SDS011;392;48.838;2.322;2023-07-22T04:50:07;6.80;;;5.30;;
819;SDS011;392;48.838;2.322;2023-07-22T04:52:35;5.57;;;5.07;;
819;SDS011;392;48.838;2.322;2023-07-22T04:55:03;6.90;;;6.23;;
819;SDS011;392;48.838;2.322;2023-07-22T04:57:34;7.00;;;5.70;;
819;SDS011;392;48.838;2.322;2023-07-22T05:00:01;6.10;;;5.33;;
819;SDS011;392;48.838;2.322;2023-07-22T05:02:30;7.70;;;5.30;;
819;SDS011;392;48.838;2.322;2023-07-22T05:04:58;7.57;;;5.63;;
819;SDS011;392;48.838;2.322;2023-07-22T05:07:27;7.67;;;6.10;;
819;SDS011;392;48.838;2.322;2023-07-22T05:09:54;5.33;;;4.83;;
819;SDS011;392;48.838;2.322;2023-07-22T05:12:22;6.13;;;4.93;;
819;SDS011;392;48.838;2.322;2023-07-22T05:14:49;6.77;;;5.90;;
819;SDS011;392;48.838;2.322;2023-07-22T05:17:16;6.70;;;6.00;;
819;SDS011;392;48.838;2.322;2023-07-22T05:19:43;7.63;;;5.83;;
819;SDS011;392;48.838;2.322;2023-07-22T05:22:11;7.50;;;5.73;;
819;SDS011;392;48.838;2.322;2023-07-22T05:24:39;7.70;;;5.40;;
819;SDS011;392;48.838;2.322;2023-07-22T05:27:06;7.90;;;5.73;;
819;SDS011;392;48.838;2.322;2023-07-22T05:29:34;7.40;;;6.57;;
819;SDS011;392;48.838;2.322;2023-07-22T05:32:01;6.17;;;5.43;;
819;SDS011;392;48.838;2.322;2023-07-22T05:34:28;5.67;;;5.10;;
819;SDS011;392;48.838;2.322;2023-07-22T05:36:55;7.03;;;5.90;;
819;SDS011;392;48.838;2.322;2023-07-22T05:39:23;6.47;;;4.93;;
819;SDS011;392;48.838;2.322;2023-07-22T05:41:52;7.17;;;5.20;;
819;SDS011;392;48.838;2.322;2023-07-22T05:44:20;5.23;;;4.73;;
819;SDS011;392;48.838;2.322;2023-07-22T05:46:48;6.07;;;4.70;;
819;SDS011;392;48.838;2.322;2023-07-22T05:49:15;6.73;;;5.83;;
819;SDS011;392;48.838;2.322;2023-07-22T05:51:43;6.00;;;4.80;;
819;SDS011;392;48.838;2.322;2023-07-22T05:54:10;6.33;;;5.00;;
819;SDS011;392;48.838;2.322;2023-07-22T05:56:37;5.60;;;5.03;;
819;SDS011;392;48.838;2.322;2023-07-22T05:59:06;5.27;;;4.80;;
819;SDS011;392;48.838;2.322;2023-07-22T06:01:33;7.63;;;5.20;;
819;SDS011;392;48.838;2.322;2023-07-22T06:04:00;5.87;;;4.70;;
819;SDS011;392;48.838;2.322;2023-07-22T06:06:29;5.40;;;4.90;;
819;SDS011;392;48.838;2.322;2023-07-22T06:08:56;7.53;;;5.90;;
819;SDS011;392;48.838;2.322;2023-07-22T06:11:24;5.80;;;4.63;;
819;SDS011;392;48.838;2.322;2023-07-22T06:13:51;5.70;;;5.07;;
819;SDS011;392;48.838;2.322;2023-07-22T06:16:19;5.53;;;5.03;;
819;SDS011;392;48.838;2.322;2023-07-22T06:18:47;6.10;;;5.60;;
819;SDS011;392;48.838;2.322;2023-07-22T06:21:14;6.77;;;5.50;;
819;SDS011;392;48.838;2.322;2023-07-22T06:23:43;6.10;;;5.50;;
819;SDS011;392;48.838;2.322;2023-07-22T06:26:10;7.10;;;6.33;;
819;SDS011;392;48.838;2.322;2023-07-22T06:28:37;7.23;;;5.57;;
819;SDS011;392;48.838;2.322;2023-07-22T06:31:04;6.97;;;6.30;;
819;SDS011;392;48.838;2.322;2023-07-22T06:33:33;7.50;;;6.90;;
819;SDS011;392;48.838;2.322;2023-07-22T06:36:01;7.63;;;6.10;;
819;SDS011;392;48.838;2.322;2023-07-22T06:38:29;6.87;;;5.63;;
819;SDS011;392;48.838;2.322;2023-07-22T06:40:56;6.13;;;5.50;;
819;SDS011;392;48.838;2.322;2023-07-22T06:43:24;7.83;;;6.77;;
819;SDS011;392;48.838;2.322;2023-07-22T06:45:51;6.70;;;5.90;;
819;SDS011;392;48.838;2.322;2023-07-22T06:48:18;7.13;;;5.50;;
819;SDS011;392;48.838;2.322;2023-07-22T06:50:50;7.13;;;6.17;;
819;SDS011;392;48.838;2.322;2023-07-22T06:53:17;7.33;;;6.27;;
819;SDS011;392;48.838;2.322;2023-07-22T06:55:48;6.40;;;5.80;;
819;SDS011;392;48.838;2.322;2023-07-22T06:58:16;6.83;;;5.90;;
819;SDS011;392;48.838;2.322;2023-07-22T07:00:44;8.40;;;6.07;;
819;SDS011;392;48.838;2.322;2023-07-22T07:03:11;6.97;;;6.27;;
819;SDS011;392;48.838;2.322;2023-07-22T07:05:39;7.20;;;6.50;;
819;SDS011;392;48.838;2.322;2023-07-22T07:08:08;9.00;;;6.20;;
819;SDS011;392;48.838;2.322;2023-07-22T07:10:37;7.10;;;6.40;;
819;SDS011;392;48.838;2.322;2023-07-22T07:13:05;6.40;;;5.80;;
819;SDS011;392;48.838;2.322;2023-07-22T07:15:34;6.37;;;5.77;;
819;SDS011;392;48.838;2.322;2023-07-22T07:18:01;6.43;;;5.83;;
819;SDS011;392;48.838;2.322;2023-07-22T07:20:29;6.00;;;5.40;;
819;SDS011;392;48.838;2.322;2023-07-22T07:22:56;6.90;;;5.57;;
819;SDS011;392;48.838;2.322;2023-07-22T07:25:25;7.83;;;6.63;;
819;SDS011;392;48.838;2.322;2023-07-22T07:27:52;6.40;;;5.80;;
819;SDS011;392;48.838;2.322;2023-07-22T07:30:19;6.50;;;5.90;;
819;SDS011;392;48.838;2.322;2023-07-22T07:32:46;6.30;;;5.80;;
819;SDS011;392;48.838;2.322;2023-07-22T07:35:14;6.10;;;5.60;;
819;SDS011;392;48.838;2.322;2023-07-22T07:37:41;6.40;;;5.80;;
819;SDS011;392;48.838;2.322;2023-07-22T07:40:08;5.93;;;5.43;;
819;SDS011;392;48.838;2.322;2023-07-22T07:42:39;6.97;;;5.90;;
819;SDS011;392;48.838;2.322;2023-07-22T07:45:07;6.50;;;5.87;;
819;SDS011;392;48.838;2.322;2023-07-22T07:47:35;5.80;;;5.30;;
819;SDS011;392;48.838;2.322;2023-07-22T07:50:02;6.80;;;6.20;;
819;SDS011;392;48.838;2.322;2023-07-22T07:52:30;5.93;;;5.43;;
819;SDS011;392;48.838;2.322;2023-07-22T07:54:58;6.13;;;5.63;;
819;SDS011;392;48.838;2.322;2023-07-22T07:57:25;6.30;;;5.77;;
819;SDS011;392;48.838;2.322;2023-07-22T07:59:53;6.27;;;5.70;;
819;SDS011;392;48.838;2.322;2023-07-22T08:02:21;7.00;;;6.40;;
819;SDS011;392;48.838;2.322;2023-07-22T08:04:48;8.50;;;6.27;;
819;SDS011;392;48.838;2.322;2023-07-22T08:07:16;6.10;;;5.50;;
819;SDS011;392;48.838;2.322;2023-07-22T08:09:43;5.97;;;5.43;;
819;SDS011;392;48.838;2.322;2023-07-22T08:12:14;5.87;;;5.37;;
819;SDS011;392;48.838;2.322;2023-07-22T08:14:43;6.80;;;6.27;;
819;SDS011;392;48.838;2.322;2023-07-22T08:17:11;7.30;;;6.50;;
819;SDS011;392;48.838;2.322;2023-07-22T08:19:39;5.87;;;5.40;;
819;SDS011;392;48.838;2.322;2023-07-22T08:22:06;6.43;;;5.90;;
819;SDS011;392;48.838;2.322;2023-07-22T08:24:33;5.70;;;5.30;;
819;SDS011;392;48.838;2.322;2023-07-22T08:27:00;6.90;;;5.93;;
819;SDS011;392;48.838;2.322;2023-07-22T08:29:28;5.23;;;4.80;;
819;SDS011;392;48.838;2.322;2023-07-22T08:31:55;5.93;;;5.43;;
819;SDS011;392;48.838;2.322;2023-07-22T08:34:24;6.27;;;5.70;;
819;SDS011;392;48.838;2.322;2023-07-22T08:36:51;5.80;;;5.30;;
819;SDS011;392;48.838;2.322;2023-07-22T08:39:19;6.10;;;5.30;;
819;SDS011;392;48.838;2.322;2023-07-22T08:41:47;5.30;;;4.90;;
819;SDS011;392;48.838;2.322;2023-07-22T08:44:17;5.80;;;5.40;;
819;SDS011;392;48.838;2.322;2023-07-22T08:46:46;5.57;;;5.13;;
819;SDS011;392;48.838;2.322;2023-07-22T08:49:15;7.40;;;5.90;;
819;SDS011;392;48.838;2.322;2023-07-22T08:51:44;5.97;;;5.50;;
819;SDS011;392;48.838;2.322;2023-07-22T08:54:13;5.83;;;5.37;;
819;SDS011;392;48.838;2.322;2023-07-22T08:56:41;7.43;;;6.07;;
819;SDS011;392;48.838;2.322;2023-07-22T08:59:09;6.50;;;5.83;;
819;SDS011;392;48.838;2.322;2023-07-22T09:01:37;5.73;;;5.33;;
819;SDS011;392;48.838;2.322;2023-07-22T09:04:05;7.10;;;6.50;;
819;SDS011;392;48.838;2.322;2023-07-22T09:06:34;7.20;;;6.60;;
819;SDS011;392;48.838;2.322;2023-07-22T09:09:03;6.80;;;6.30;;
819;SDS011;392;48.838;2.322;2023-07-22T09:11:34;5.97;;;5.57;;
819;SDS011;392;48.838;2.322;2023-07-22T09:14:01;6.67;;;6.17;;
819;SDS011;392;48.838;2.322;2023-07-22T09:16:30;6.97;;;6.40;;
819;SDS011;392;48.838;2.322;2023-07-22T09:18:57;6.87;;;6.37;;
819;SDS011;392;48.838;2.322;2023-07-22T09:21:25;6.57;;;6.17;;
819;SDS011;392;48.838;2.322;2023-07-22T09:23:54;6.53;;;6.00;;
819;SDS011;392;48.838;2.322;2023-07-22T09:26:22;6.33;;;5.97;;
819;SDS011;392;48.838;2.322;2023-07-22T09:28:50;6.93;;;6.43;;
819;SDS011;392;48.838;2.322;2023-07-22T09:31:20;6.50;;;6.10;;
819;SDS011;392;48.838;2.322;2023-07-22T09:33:48;6.60;;;6.10;;
819;SDS011;392;48.838;2.322;2023-07-22T09:36:16;7.40;;;6.80;;
819;SDS011;392;48.838;2.322;2023-07-22T09:38:43;7.20;;;6.60;;
819;SDS011;392;48.838;2.322;2023-07-22T09:41:11;7.60;;;7.10;;
819;SDS011;392;48.838;2.322;2023-07-22T09:43:40;6.87;;;6.37;;
819;SDS011;392;48.838;2.322;2023-07-22T09:46:08;7.20;;;6.70;;
819;SDS011;392;48.838;2.322;2023-07-22T09:48:39;8.40;;;7.90;;
819;SDS011;392;48.838;2.322;2023-07-22T09:51:12;7.90;;;7.30;;
819;SDS011;392;48.838;2.322;2023-07-22T09:53:44;6.60;;;6.30;;
819;SDS011;392;48.838;2.322;2023-07-22T09:56:14;7.70;;;7.20;;
819;SDS011;392;48.838;2.322;2023-07-22T09:58:43;6.50;;;6.10;;
819;SDS011;392;48.838;2.322;2023-07-22T10:01:13;7.10;;;6.60;;
819;SDS011;392;48.838;2.322;2023-07-22T10:03:46;6.87;;;6.47;;
819;SDS011;392;48.838;2.322;2023-07-22T10:06:20;6.00;;;5.60;;
819;SDS011;392;48.838;2.322;2023-07-22T10:08:50;6.17;;;5.83;;
819;SDS011;392;48.838;2.322;2023-07-22T10:11:18;6.90;;;6.40;;
819;SDS011;392;48.838;2.322;2023-07-22T10:13:47;6.93;;;6.53;;
819;SDS011;392;48.838;2.322;2023-07-22T10:16:15;6.50;;;6.10;;
819;SDS011;392;48.838;2.322;2023-07-22T10:18:43;6.90;;;5.90;;
819;SDS011;392;48.838;2.322;2023-07-22T10:21:12;6.50;;;6.00;;
819;SDS011;392;48.838;2.322;2023-07-22T10:23:39;5.97;;;5.50;;
819;SDS011;392;48.838;2.322;2023-07-22T10:26:07;5.93;;;5.43;;
819;SDS011;392;48.838;2.322;2023-07-22T10:28:39;10.63;;;6.20;;
819;SDS011;392;48.838;2.322;2023-07-22T10:31:10;6.07;;;5.67;;
819;SDS011;392;48.838;2.322;2023-07-22T10:33:38;6.10;;;5.70;;
819;SDS011;392;48.838;2.322;2023-07-22T10:36:05;6.70;;;6.20;;
819;SDS011;392;48.838;2.322;2023-07-22T10:38:34;6.83;;;6.40;;
819;SDS011;392;48.838;2.322;2023-07-22T10:41:11;6.50;;;6.10;;
819;SDS011;392;48.838;2.322;2023-07-22T10:43:39;6.47;;;6.07;;
819;SDS011;392;48.838;2.322;2023-07-22T10:46:10;6.30;;;5.90;;
819;SDS011;392;48.838;2.322;2023-07-22T10:48:40;6.10;;;5.60;;
819;SDS011;392;48.838;2.322;2023-07-22T10:51:09;5.83;;;5.30;;
819;SDS011;392;48.838;2.322;2023-07-22T10:53:40;6.20;;;5.70;;
819;SDS011;392;48.838;2.322;2023-07-22T10:56:13;6.13;;;5.73;;
819;SDS011;392;48.838;2.322;2023-07-22T10:58:55;6.03;;;5.53;;
819;SDS011;392;48.838;2.322;2023-07-22T11:01:30;6.60;;;6.07;;
819;SDS011;392;48.838;2.322;2023-07-22T11:04:04;5.80;;;5.30;;
819;SDS011;392;48.838;2.322;2023-07-22T11:06:52;5.80;;;5.50;;
819;SDS011;392;48.838;2.322;2023-07-22T11:09:33;5.40;;;5.00;;
819;SDS011;392;48.838;2.322;2023-07-22T11:12:09;6.03;;;5.30;;
819;SDS011;392;48.838;2.322;2023-07-22T11:14:45;6.57;;;4.83;;
819;SDS011;392;48.838;2.322;2023-07-22T11:17:16;5.70;;;5.30;;
819;SDS011;392;48.838;2.322;2023-07-22T11:19:44;5.67;;;5.17;;
819;SDS011;392;48.838;2.322;2023-07-22T11:22:12;7.83;;;7.33;;
819;SDS011;392;48.838;2.322;2023-07-22T11:24:40;6.40;;;6.00;;
819;SDS011;392;48.838;2.322;2023-07-22T11:27:07;5.53;;;5.23;;
819;SDS011;392;48.838;2.322;2023-07-22T11:29:35;5.87;;;5.47;;
819;SDS011;392;48.838;2.322;2023-07-22T11:32:02;5.33;;;5.03;;
819;SDS011;392;48.838;2.322;2023-07-22T11:34:34;5.30;;;5.00;;
819;SDS011;392;48.838;2.322;2023-07-22T11:37:01;5.10;;;4.80;;
819;SDS011;392;48.838;2.322;2023-07-22T11:39:29;5.20;;;4.80;;
819;SDS011;392;48.838;2.322;2023-07-22T11:41:59;5.37;;;4.97;;
819;SDS011;392;48.838;2.322;2023-07-22T11:44:28;5.83;;;5.43;;
819;SDS011;392;48.838;2.322;2023-07-22T11:46:57;5.70;;;5.40;;
819;SDS011;392;48.838;2.322;2023-07-22T11:49:28;5.70;;;5.20;;
819;SDS011;392;48.838;2.322;2023-07-22T11:51:58;4.80;;;4.60;;
819;SDS011;392;48.838;2.322;2023-07-22T11:54:28;6.33;;;5.93;;
819;SDS011;392;48.838;2.322;2023-07-22T11:56:56;5.33;;;5.00;;
819;SDS011;392;48.838;2.322;2023-07-22T11:59:34;5.70;;;5.30;;
819;SDS011;392;48.838;2.322;2023-07-22T12:02:03;5.60;;;5.20;;
819;SDS011;392;48.838;2.322;2023-07-22T12:04:31;6.07;;;5.60;;
819;SDS011;392;48.838;2.322;2023-07-22T12:07:01;5.53;;;5.23;;
819;SDS011;392;48.838;2.322;2023-07-22T12:09:30;5.17;;;4.87;;
819;SDS011;392;48.838;2.322;2023-07-22T12:11:58;4.83;;;4.53;;
819;SDS011;392;48.838;2.322;2023-07-22T12:14:33;5.20;;;4.90;;
819;SDS011;392;48.838;2.322;2023-07-22T12:17:01;6.10;;;5.70;;
819;SDS011;392;48.838;2.322;2023-07-22T12:19:29;6.20;;;5.90;;
819;SDS011;392;48.838;2.322;2023-07-22T12:21:56;5.73;;;5.33;;
819;SDS011;392;48.838;2.322;2023-07-22T12:24:26;5.53;;;5.20;;
819;SDS011;392;48.838;2.322;2023-07-22T12:26:54;6.10;;;5.70;;
819;SDS011;392;48.838;2.322;2023-07-22T12:29:21;6.33;;;6.03;;
819;SDS011;392;48.838;2.322;2023-07-22T12:31:48;5.90;;;5.60;;
819;SDS011;392;48.838;2.322;2023-07-22T12:34:15;5.87;;;5.47;;
819;SDS011;392;48.838;2.322;2023-07-22T12:36:43;6.87;;;6.37;;
819;SDS011;392;48.838;2.322;2023-07-22T12:39:10;5.43;;;5.00;;
819;SDS011;392;48.838;2.322;2023-07-22T12:41:39;5.63;;;5.23;;
819;SDS011;392;48.838;2.322;2023-07-22T12:44:06;5.93;;;5.53;;
819;SDS011;392;48.838;2.322;2023-07-22T12:46:33;5.30;;;5.00;;
819;SDS011;392;48.838;2.322;2023-07-22T12:49:00;6.67;;;6.20;;
819;SDS011;392;48.838;2.322;2023-07-22T12:51:28;6.37;;;5.97;;
819;SDS011;392;48.838;2.322;2023-07-22T12:53:55;6.07;;;5.57;;
819;SDS011;392;48.838;2.322;2023-07-22T12:56:22;5.17;;;4.97;;
819;SDS011;392;48.838;2.322;2023-07-22T12:58:51;5.07;;;4.87;;
819;SDS011;392;48.838;2.322;2023-07-22T13:01:18;5.23;;;4.93;;
819;SDS011;392;48.838;2.322;2023-07-22T13:03:45;5.60;;;5.20;;
819;SDS011;392;48.838;2.322;2023-07-22T13:06:13;4.97;;;4.67;;
819;SDS011;392;48.838;2.322;2023-07-22T13:08:40;4.93;;;4.73;;
819;SDS011;392;48.838;2.322;2023-07-22T13:11:07;5.23;;;4.93;;
819;SDS011;392;48.838;2.322;2023-07-22T13:13:34;5.70;;;5.30;;
819;SDS011;392;48.838;2.322;2023-07-22T13:16:03;6.43;;;5.83;;
819;SDS011;392;48.838;2.322;2023-07-22T13:18:30;5.90;;;5.50;;
819;SDS011;392;48.838;2.322;2023-07-22T13:20:58;5.93;;;5.53;;
819;SDS011;392;48.838;2.322;2023-07-22T13:23:25;7.07;;;6.67;;
819;SDS011;392;48.838;2.322;2023-07-22T13:25:52;5.90;;;5.50;;
819;SDS011;392;48.838;2.322;2023-07-22T13:28:19;5.87;;;5.57;;
819;SDS011;392;48.838;2.322;2023-07-22T13:30:47;5.90;;;5.40;;
819;SDS011;392;48.838;2.322;2023-07-22T13:33:15;6.00;;;5.60;;
819;SDS011;392;48.838;2.322;2023-07-22T13:35:43;5.90;;;5.43;;
819;SDS011;392;48.838;2.322;2023-07-22T13:38:11;5.10;;;4.83;;
819;SDS011;392;48.838;2.322;2023-07-22T13:40:38;5.13;;;4.83;;
819;SDS011;392;48.838;2.322;2023-07-22T13:43:05;5.20;;;4.90;;
819;SDS011;392;48.838;2.322;2023-07-22T13:45:34;4.60;;;4.30;;
819;SDS011;392;48.838;2.322;2023-07-22T13:48:02;5.07;;;4.70;;
819;SDS011;392;48.838;2.322;2023-07-22T13:50:31;5.20;;;4.90;;
819;SDS011;392;48.838;2.322;2023-07-22T13:52:59;5.70;;;5.20;;
819;SDS011;392;48.838;2.322;2023-07-22T13:55:26;5.77;;;5.47;;
819;SDS011;392;48.838;2.322;2023-07-22T13:57:53;5.43;;;5.10;;
819;SDS011;392;48.838;2.322;2023-07-22T14:00:21;5.50;;;5.10;;
819;SDS011;392;48.838;2.322;2023-07-22T14:02:48;4.97;;;4.67;;
819;SDS011;392;48.838;2.322;2023-07-22T14:05:15;6.40;;;5.90;;
819;SDS011;392;48.838;2.322;2023-07-22T14:07:44;5.90;;;5.40;;
819;SDS011;392;48.838;2.322;2023-07-22T14:10:11;5.67;;;5.27;;
819;SDS011;392;48.838;2.322;2023-07-22T14:12:39;5.77;;;5.27;;
819;SDS011;392;48.838;2.322;2023-07-22T14:15:07;6.10;;;5.53;;
819;SDS011;392;48.838;2.322;2023-07-22T14:17:35;5.23;;;4.90;;
819;SDS011;392;48.838;2.322;2023-07-22T14:20:04;5.17;;;4.87;;
819;SDS011;392;48.838;2.322;2023-07-22T14:22:32;5.50;;;5.10;;
819;SDS011;392;48.838;2.322;2023-07-22T14:25:01;5.80;;;5.50;;
819;SDS011;392;48.838;2.322;2023-07-22T14:27:29;5.70;;;5.37;;
819;SDS011;392;48.838;2.322;2023-07-22T14:29:56;6.03;;;5.43;;
819;SDS011;392;48.838;2.322;2023-07-22T14:32:23;4.70;;;4.40;;
819;SDS011;392;48.838;2.322;2023-07-22T14:34:51;5.90;;;5.50;;
819;SDS011;392;48.838;2.322;2023-07-22T14:37:18;5.40;;;5.00;;
819;SDS011;392;48.838;2.322;2023-07-22T14:39:45;5.97;;;5.60;;
819;SDS011;392;48.838;2.322;2023-07-22T14:42:14;6.23;;;5.83;;
819;SDS011;392;48.838;2.322;2023-07-22T14:44:41;6.63;;;6.13;;
819;SDS011;392;48.838;2.322;2023-07-22T14:47:08;5.80;;;5.40;;
819;SDS011;392;48.838;2.322;2023-07-22T14:49:36;5.50;;;5.10;;
819;SDS011;392;48.838;2.322;2023-07-22T14:52:03;5.90;;;5.40;;
819;SDS011;392;48.838;2.322;2023-07-22T14:54:31;5.47;;;4.97;;
819;SDS011;392;48.838;2.322;2023-07-22T14:57:00;5.80;;;5.50;;
819;SDS011;392;48.838;2.322;2023-07-22T14:59:29;5.20;;;4.80;;
819;SDS011;392;48.838;2.322;2023-07-22T15:01:56;5.67;;;5.17;;
819;SDS011;392;48.838;2.322;2023-07-22T15:04:23;5.90;;;5.47;;
819;SDS011;392;48.838;2.322;2023-07-22T15:06:50;5.23;;;4.93;;
819;SDS011;392;48.838;2.322;2023-07-22T15:09:17;5.27;;;4.97;;
819;SDS011;392;48.838;2.322;2023-07-22T15:11:46;5.30;;;4.97;;
819;SDS011;392;48.838;2.322;2023-07-22T15:14:13;5.43;;;5.10;;
819;SDS011;392;48.838;2.322;2023-07-22T15:16:42;5.20;;;4.90;;
819;SDS011;392;48.838;2.322;2023-07-22T15:19:10;5.50;;;5.20;;
819;SDS011;392;48.838;2.322;2023-07-22T15:21:38;5.73;;;5.23;;
819;SDS011;392;48.838;2.322;2023-07-22T15:24:05;5.67;;;5.20;;
819;SDS011;392;48.838;2.322;2023-07-22T15:26:32;6.60;;;5.07;;
819;SDS011;392;48.838;2.322;2023-07-22T15:29:00;5.10;;;4.80;;
819;SDS011;392;48.838;2.322;2023-07-22T15:31:27;5.80;;;5.40;;
819;SDS011;392;48.838;2.322;2023-07-22T15:33:56;5.27;;;4.77;;
819;SDS011;392;48.838;2.322;2023-07-22T15:36:24;5.47;;;5.07;;
819;SDS011;392;48.838;2.322;2023-07-22T15:38:51;5.30;;;4.80;;
819;SDS011;392;48.838;2.322;2023-07-22T15:41:18;6.60;;;6.10;;
819;SDS011;392;48.838;2.322;2023-07-22T15:43:45;5.40;;;5.10;;
819;SDS011;392;48.838;2.322;2023-07-22T15:46:13;5.40;;;5.00;;
819;SDS011;392;48.838;2.322;2023-07-22T15:48:40;7.30;;;6.70;;
819;SDS011;392;48.838;2.322;2023-07-22T15:51:08;5.93;;;5.53;;